Mayer, AZ

2:37 PM MST on September 01, 2015 (GMT -0700)
Spring Valley | | Change Station
CLOSE
Current Station
Personal Weather Station
Location: Mayer, AZ
Elevation: 3917 ft
Nearby Weather Stations

Elev 3917 ft 34.34 °N, 112.16 °W | Updated 5 minutes ago

Partly Cloudy
Partly Cloudy
89.1 °F
Feels Like 87 °F
N
4.0
Wind Variable Wind from SE
Gusts 14.0 mph

Today
High -- | Low -- °F
--% Chance of Precip.
Yesterday
High -- | Low -- °F
Precip. -- in
6:01 AM 6:54 PM
Waning Gibbous, 86% visible
Pressure 29.88 in
Visibility 10.0 miles
Clouds Mostly Cloudy 8500 ft
Heat Index 87 °F
Dew Point 54 °F
Humidity 31%
Rainfall 0.00 in
Snow Depth Not available.
UV 5 out of 12
Pollen 6.00 out of 12
Air Quality Not available.
Flu Activity Not available.
METAR KPRC 012053Z 09008KT 060V120 10SM TS BKN085 28/13 A3013 RMK AO2 SLP118 LTGCG NE TS NE MOV LTL T02780128 56014
Pressure 29.88 in
Visibility 10.0 miles
Clouds Mostly Cloudy 8500 ft
Heat Index 87 °F
Dew Point 54 °F
Humidity 31%
Rainfall 0.00 in
Snow Depth Not available.
UV 5 out of 12
Pollen 6.00 out of 12
Air Quality Not available.
Flu Activity Not available.
METAR KPRC 012053Z 09008KT 060V120 10SM TS BKN085 28/13 A3013 RMK AO2 SLP118 LTGCG NE TS NE MOV LTL T02780128 56014

10-Day Weather Forecast

×

Almanac

Astronomy

Sep. 01, 2015 Rise Set
Actual Time
Civil Twilight
Nautical Twilight
Astronomical Twilight
Moon
Length of Visible Light
Length of Day
Tomorrow will be .
, % of the Moon is Illuminated

Today's Extremes

State Highs State Lows

Community

WunderPhotos

Upload Photos

1,851,628 photos uploaded!

WunderBlogs® & News

Nearby

Air Quality

  Air Quality AQ Index Pollutant
Not available.

Snow Depth

Station Depth Elevation

Earthquake Activity

City Distance Mag. Time & Date
Minimum magnitude displayed is 2.5.

Coastal Water Temperatures

Place Temperature

Stations

Nearby Weather Stations

Station Location Temp. Windchill Dew Point Humidity Wind Precip. Elev Updated Type